createdAt,value
2023-12-19T00:00:50.272Z,21.80
2023-12-19T00:01:50.156Z,22.10
2023-12-19T00:02:50.183Z,22.70
2023-12-19T00:03:50.329Z,23.70
2023-12-19T00:04:50.164Z,23.00
2023-12-19T00:05:50.129Z,23.30
2023-12-19T00:06:50.164Z,23.00
2023-12-19T00:07:50.152Z,23.10
2023-12-19T00:08:50.112Z,22.00
2023-12-19T00:09:50.095Z,23.10
2023-12-19T00:10:50.107Z,23.60
2023-12-19T00:11:50.110Z,22.60
2023-12-19T00:12:50.075Z,22.50
2023-12-19T00:13:50.054Z,24.10
2023-12-19T00:14:50.031Z,24.20
2023-12-19T00:15:50.110Z,23.30
2023-12-19T00:16:49.994Z,24.00
2023-12-19T00:17:50.083Z,22.10
2023-12-19T00:18:50.059Z,21.90
2023-12-19T00:19:50.084Z,23.80
2023-12-19T00:20:49.960Z,21.70
2023-12-19T00:21:49.964Z,21.70
2023-12-19T00:22:49.939Z,22.30
2023-12-19T00:23:49.915Z,21.80
2023-12-19T00:24:49.959Z,23.20
2023-12-19T00:25:49.916Z,22.70
2023-12-19T00:26:49.888Z,23.00
2023-12-19T00:27:49.944Z,21.80
2023-12-19T00:28:49.902Z,22.50
2023-12-19T00:29:49.869Z,23.00
2023-12-19T00:30:50.005Z,22.70
2023-12-19T00:31:49.824Z,20.80
2023-12-19T00:32:49.913Z,21.80
2023-12-19T00:33:49.956Z,22.30
2023-12-19T00:34:49.919Z,21.00
2023-12-19T00:35:49.791Z,20.70
2023-12-19T00:36:49.857Z,21.50
2023-12-19T00:37:49.771Z,22.30
2023-12-19T00:38:49.756Z,21.50
2023-12-19T00:39:49.845Z,20.90
2023-12-19T00:40:49.803Z,20.80
2023-12-19T00:41:49.710Z,21.70
2023-12-19T00:42:49.730Z,21.20
2023-12-19T00:43:49.707Z,21.00
2023-12-19T00:44:49.706Z,20.20
2023-12-19T00:45:49.728Z,20.80
2023-12-19T00:46:49.684Z,20.20
2023-12-19T00:47:49.691Z,19.80
2023-12-19T00:48:49.799Z,20.30
2023-12-19T00:49:49.689Z,20.20
2023-12-19T00:50:49.620Z,20.60
2023-12-19T00:51:49.647Z,18.90
2023-12-19T00:52:49.630Z,19.50
2023-12-19T00:53:49.612Z,19.60
2023-12-19T00:54:49.618Z,20.00
2023-12-19T00:55:49.565Z,20.00
2023-12-19T00:56:49.556Z,20.20
2023-12-19T00:57:49.638Z,19.70
2023-12-19T00:58:49.525Z,18.40
2023-12-19T00:59:49.526Z,18.90
2023-12-19T01:00:49.638Z,19.60
2023-12-19T01:01:49.524Z,18.40
2023-12-19T01:02:49.506Z,18.70
2023-12-19T01:03:49.598Z,19.50
2023-12-19T01:04:49.586Z,19.40
2023-12-19T01:05:49.488Z,18.90
2023-12-19T01:06:49.521Z,19.00
2023-12-19T01:07:49.439Z,18.50
2023-12-19T01:08:49.468Z,19.10
2023-12-19T01:09:49.441Z,19.20
2023-12-19T01:10:49.413Z,18.80
2023-12-19T01:11:55.402Z,19.20
2023-12-19T01:12:49.383Z,18.90
2023-12-19T01:13:49.352Z,18.80
2023-12-19T01:14:49.332Z,18.10
2023-12-19T01:15:49.446Z,18.30
2023-12-19T01:16:49.319Z,19.80
2023-12-19T01:17:49.341Z,17.90
2023-12-19T01:18:49.342Z,18.20
2023-12-19T01:19:49.519Z,18.30
2023-12-19T01:20:49.450Z,19.80
2023-12-19T01:21:49.315Z,18.80
2023-12-19T01:22:49.252Z,19.10
2023-12-19T01:23:49.260Z,17.40
2023-12-19T01:24:49.269Z,19.00
2023-12-19T01:25:49.219Z,18.60
2023-12-19T01:26:49.250Z,18.30
2023-12-19T01:27:49.265Z,18.80
2023-12-19T01:28:49.184Z,17.90
2023-12-19T01:29:49.176Z,18.00
2023-12-19T01:30:49.231Z,17.90
2023-12-19T01:31:49.189Z,18.50
2023-12-19T01:32:49.254Z,18.10
2023-12-19T01:33:49.294Z,18.10
2023-12-19T01:34:49.223Z,18.20
2023-12-19T01:35:49.110Z,17.90
2023-12-19T01:36:56.832Z,17.60
2023-12-19T01:37:49.120Z,17.60
2023-12-19T01:38:49.082Z,17.70
2023-12-19T01:39:49.127Z,17.60
2023-12-19T01:40:49.072Z,16.60
2023-12-19T01:41:49.046Z,16.80
2023-12-19T01:42:49.076Z,18.10
2023-12-19T01:43:49.034Z,17.50
2023-12-19T01:44:49.013Z,18.10
2023-12-19T01:45:49.041Z,17.20
2023-12-19T01:46:49.006Z,15.90
2023-12-19T01:47:49.069Z,17.70
2023-12-19T01:48:49.106Z,16.30
2023-12-19T01:49:49.096Z,16.60
2023-12-19T01:50:49.050Z,16.90
2023-12-19T01:51:48.979Z,15.20
2023-12-19T01:52:48.936Z,15.00
2023-12-19T01:53:48.969Z,16.10
2023-12-19T01:54:48.966Z,15.80
2023-12-19T01:55:48.927Z,16.00
2023-12-19T01:56:48.919Z,15.50
2023-12-19T01:57:48.931Z,15.60
2023-12-19T01:58:48.879Z,14.90
2023-12-19T01:59:48.883Z,14.80
2023-12-19T02:00:48.991Z,14.80
2023-12-19T02:01:48.876Z,15.80
2023-12-19T02:02:48.885Z,14.40
2023-12-19T02:03:48.909Z,14.30
2023-12-19T02:04:48.942Z,14.60
2023-12-19T02:05:48.802Z,13.00
2023-12-19T02:06:48.810Z,14.10
2023-12-19T02:07:48.765Z,12.90
2023-12-19T02:08:48.767Z,12.90
2023-12-19T02:09:48.780Z,13.80
2023-12-19T02:10:48.759Z,12.50
2023-12-19T02:11:48.737Z,12.40
2023-12-19T02:12:49.274Z,13.20
2023-12-19T02:13:48.721Z,11.90
2023-12-19T02:14:48.693Z,13.40
2023-12-19T02:15:48.720Z,12.50
2023-12-19T02:16:48.682Z,12.80
2023-12-19T02:17:48.719Z,12.30
2023-12-19T02:18:48.720Z,12.90
2023-12-19T02:19:48.717Z,12.60
2023-12-19T02:20:48.647Z,12.50
2023-12-19T02:21:48.645Z,12.60
2023-12-19T02:22:48.627Z,11.40
2023-12-19T02:23:48.595Z,12.50
2023-12-19T02:24:48.628Z,11.90
2023-12-19T02:25:48.580Z,12.20
2023-12-19T02:26:48.573Z,11.80
2023-12-19T02:27:48.636Z,12.50
2023-12-19T02:28:48.563Z,11.80
2023-12-19T02:29:48.524Z,12.70
2023-12-19T02:30:48.619Z,12.70
2023-12-19T02:31:48.516Z,12.40
2023-12-19T02:32:48.509Z,12.10
2023-12-19T02:33:48.627Z,13.10
2023-12-19T02:34:48.540Z,12.90
2023-12-19T02:35:48.458Z,13.70
2023-12-19T02:36:48.501Z,13.00
2023-12-19T02:37:48.431Z,12.90
2023-12-19T02:38:48.429Z,13.00
2023-12-19T02:39:48.448Z,14.10
2023-12-19T02:40:48.419Z,13.20
2023-12-19T02:41:48.392Z,13.40
2023-12-19T02:42:48.437Z,13.50
2023-12-19T02:43:54.294Z,14.20
2023-12-19T02:44:48.388Z,12.80
2023-12-19T02:45:48.408Z,13.90
2023-12-19T02:46:48.354Z,14.60
2023-12-19T02:47:48.517Z,14.30
2023-12-19T02:48:48.397Z,14.30
2023-12-19T02:49:48.381Z,14.50
2023-12-19T02:50:48.291Z,14.50
2023-12-19T02:51:48.332Z,13.80
2023-12-19T02:52:48.267Z,14.60
2023-12-19T02:53:48.265Z,14.70
2023-12-19T02:54:48.254Z,14.70
2023-12-19T02:55:48.235Z,14.50
2023-12-19T02:56:48.242Z,14.10
2023-12-19T02:57:48.264Z,14.10
2023-12-19T02:58:48.212Z,13.80
2023-12-19T02:59:48.194Z,15.00
2023-12-19T03:00:48.238Z,14.60
2023-12-19T03:01:48.239Z,14.70
2023-12-19T03:02:48.196Z,14.10
2023-12-19T03:03:48.233Z,15.40
2023-12-19T03:04:48.247Z,15.40
2023-12-19T03:05:48.187Z,14.90
2023-12-19T03:06:48.193Z,15.60
2023-12-19T03:07:48.098Z,16.00
2023-12-19T03:08:48.105Z,15.90
2023-12-19T03:09:48.134Z,15.60
2023-12-19T03:10:48.073Z,14.90
2023-12-19T03:11:48.056Z,14.30
2023-12-19T03:12:48.168Z,16.00
2023-12-19T03:13:48.047Z,15.40
2023-12-19T03:14:48.029Z,15.50
2023-12-19T03:15:48.040Z,14.20
2023-12-19T03:16:48.008Z,14.30
2023-12-19T03:17:48.043Z,13.80
2023-12-19T03:18:48.121Z,13.80
2023-12-19T03:19:48.064Z,14.20
2023-12-19T03:20:47.960Z,14.20
2023-12-19T03:21:47.967Z,13.70
2023-12-19T03:22:47.938Z,13.90
2023-12-19T03:23:47.933Z,13.60
2023-12-19T03:24:47.956Z,14.10
2023-12-19T03:25:47.919Z,12.50
2023-12-19T03:26:47.900Z,13.40
2023-12-19T03:27:47.911Z,13.70
2023-12-19T03:28:47.894Z,12.90
2023-12-19T03:29:47.873Z,13.50
2023-12-19T03:30:47.992Z,12.10
2023-12-19T03:31:47.875Z,13.20
2023-12-19T03:32:47.840Z,13.40
2023-12-19T03:33:47.932Z,13.60
2023-12-19T03:34:47.869Z,13.30
2023-12-19T03:35:47.804Z,12.60
2023-12-19T03:36:47.844Z,13.00
2023-12-19T03:37:47.780Z,12.80
2023-12-19T03:38:47.786Z,13.10
2023-12-19T03:39:47.839Z,13.80
2023-12-19T03:40:47.762Z,13.30
2023-12-19T03:42:10.171Z,14.10
2023-12-19T03:42:48.169Z,13.00
2023-12-19T03:43:47.730Z,13.70
2023-12-19T03:44:47.711Z,12.90
2023-12-19T03:45:47.748Z,13.60
2023-12-19T03:46:47.686Z,12.40
2023-12-19T03:47:47.764Z,13.40
2023-12-19T03:48:47.736Z,13.10
2023-12-19T03:49:47.715Z,12.70
2023-12-19T03:50:47.647Z,12.90
2023-12-19T03:51:47.670Z,12.80
2023-12-19T03:52:47.642Z,12.00
2023-12-19T03:53:47.624Z,13.30
2023-12-19T03:54:47.627Z,12.40
2023-12-19T03:55:47.604Z,11.60
2023-12-19T03:56:47.581Z,12.40
2023-12-19T03:57:47.585Z,12.20
2023-12-19T03:58:47.556Z,12.30
2023-12-19T03:59:47.563Z,11.60
2023-12-19T04:00:47.602Z,11.90
2023-12-19T04:01:47.560Z,14.00
2023-12-19T04:02:47.512Z,11.90
2023-12-19T04:03:47.546Z,12.00
2023-12-19T04:04:47.557Z,11.70
2023-12-19T04:05:47.531Z,11.20
2023-12-19T04:06:47.494Z,11.70
2023-12-19T04:07:47.463Z,11.60
2023-12-19T04:08:47.442Z,11.70
2023-12-19T04:09:47.496Z,11.40
2023-12-19T04:10:47.444Z,11.70
2023-12-19T04:11:47.416Z,11.30
2023-12-19T04:12:47.592Z,11.90
2023-12-19T04:13:47.416Z,11.40
2023-12-19T04:14:47.373Z,10.70
2023-12-19T04:15:47.408Z,10.90
2023-12-19T04:16:47.369Z,10.40
2023-12-19T04:17:47.402Z,11.10
2023-12-19T04:18:47.421Z,10.20
2023-12-19T04:19:47.335Z,10.40
2023-12-19T04:20:47.340Z,11.10
2023-12-19T04:21:47.319Z,10.50
2023-12-19T04:22:47.817Z,10.20
2023-12-19T04:23:47.277Z,9.80
2023-12-19T04:24:47.335Z,10.40
2023-12-19T04:25:47.253Z,9.70
2023-12-19T04:26:47.260Z,10.50
2023-12-19T04:27:47.265Z,10.20
2023-12-19T04:28:47.229Z,10.10
2023-12-19T04:29:47.214Z,10.40
2023-12-19T04:30:47.306Z,9.60
2023-12-19T04:31:47.273Z,10.10
2023-12-19T04:32:47.476Z,9.70
2023-12-19T04:33:47.279Z,9.70
2023-12-19T04:34:47.182Z,9.80
2023-12-19T04:35:47.157Z,9.40
2023-12-19T04:36:47.145Z,9.50
2023-12-19T04:37:47.131Z,9.20
2023-12-19T04:38:47.141Z,9.50
2023-12-19T04:39:47.130Z,9.30
2023-12-19T04:40:47.094Z,9.70
2023-12-19T04:41:47.082Z,9.80
2023-12-19T04:42:47.416Z,9.00
2023-12-19T04:43:47.064Z,9.90
2023-12-19T04:44:47.067Z,9.20
2023-12-19T04:45:47.077Z,9.70
2023-12-19T04:46:47.034Z,9.20
2023-12-19T04:47:47.068Z,9.60
2023-12-19T04:48:47.070Z,9.50
2023-12-19T04:49:47.219Z,9.50
2023-12-19T04:50:47.005Z,9.40
2023-12-19T04:51:47.019Z,10.00
2023-12-19T04:52:46.970Z,9.80
2023-12-19T04:53:46.950Z,10.30
2023-12-19T04:54:46.986Z,9.40
2023-12-19T04:55:46.956Z,9.00
2023-12-19T04:56:46.920Z,9.30
2023-12-19T04:57:46.928Z,9.30
2023-12-19T04:58:46.895Z,11.10
2023-12-19T04:59:46.965Z,9.30
2023-12-19T05:00:46.930Z,9.60
2023-12-19T05:01:46.932Z,9.20
2023-12-19T05:02:47.063Z,9.40
2023-12-19T05:03:46.948Z,9.40
2023-12-19T05:04:46.880Z,9.50
2023-12-19T05:05:46.835Z,9.40
2023-12-19T05:06:46.839Z,9.20
2023-12-19T05:07:46.796Z,8.60
2023-12-19T05:08:46.916Z,8.80
2023-12-19T05:09:46.788Z,9.20
2023-12-19T05:10:46.785Z,9.40
2023-12-19T05:11:46.789Z,8.80
2023-12-19T05:12:47.024Z,8.80
2023-12-19T05:13:46.753Z,9.00
2023-12-19T05:14:46.731Z,9.60
2023-12-19T05:15:46.741Z,7.60
2023-12-19T05:16:46.729Z,9.50
2023-12-19T05:17:48.709Z,8.60
2023-12-19T05:18:46.785Z,8.80
2023-12-19T05:19:53.170Z,8.80
2023-12-19T05:20:46.673Z,8.10
2023-12-19T05:21:46.670Z,8.80
2023-12-19T05:22:47.012Z,8.10
2023-12-19T05:23:46.622Z,7.60
2023-12-19T05:24:46.688Z,8.10
2023-12-19T05:25:46.597Z,8.20
2023-12-19T05:26:46.599Z,7.70
2023-12-19T05:27:46.604Z,7.70
2023-12-19T05:28:46.584Z,8.30
2023-12-19T05:29:46.568Z,7.70
2023-12-19T05:30:46.605Z,7.20
2023-12-19T05:31:46.545Z,6.80
2023-12-19T05:32:46.802Z,7.80
2023-12-19T05:33:46.561Z,7.50
2023-12-19T05:34:46.590Z,7.50
2023-12-19T05:35:46.505Z,7.50
2023-12-19T05:36:46.496Z,7.60
2023-12-19T05:37:46.468Z,7.50
2023-12-19T05:38:46.470Z,7.00
2023-12-19T05:39:46.466Z,7.00
2023-12-19T05:40:46.436Z,7.70
2023-12-19T05:41:46.442Z,7.60
2023-12-19T05:42:46.589Z,7.20
2023-12-19T05:43:46.404Z,8.00
2023-12-19T05:44:46.413Z,7.60
2023-12-19T05:45:46.480Z,7.70
2023-12-19T05:46:46.385Z,7.20
2023-12-19T05:47:46.486Z,8.10
2023-12-19T05:48:46.499Z,7.60
2023-12-19T05:49:46.418Z,7.80
2023-12-19T05:50:46.325Z,7.20
2023-12-19T05:51:46.335Z,6.90
2023-12-19T05:52:46.549Z,6.90
2023-12-19T05:53:46.303Z,7.40
2023-12-19T05:54:46.299Z,5.90
2023-12-19T05:55:46.307Z,6.70
2023-12-19T05:56:46.257Z,6.80
2023-12-19T05:57:46.262Z,6.10
2023-12-19T05:58:46.305Z,5.90
2023-12-19T05:59:46.232Z,6.10
2023-12-19T06:00:46.449Z,5.90
2023-12-19T06:01:46.392Z,5.80
2023-12-19T06:02:46.253Z,6.00
2023-12-19T06:03:46.251Z,6.50
2023-12-19T06:04:46.265Z,5.60
2023-12-19T06:05:46.234Z,5.80
2023-12-19T06:06:46.193Z,6.10
2023-12-19T06:07:46.144Z,5.10
2023-12-19T06:08:46.165Z,5.10
2023-12-19T06:09:46.164Z,5.10
2023-12-19T06:10:46.451Z,5.00
2023-12-19T06:11:46.097Z,5.40
2023-12-19T06:12:46.403Z,5.00
2023-12-19T06:13:46.068Z,5.00
2023-12-19T06:14:46.078Z,4.00
2023-12-19T06:15:46.056Z,4.60
2023-12-19T06:16:46.044Z,4.10
2023-12-19T06:17:46.091Z,4.70
2023-12-19T06:18:46.093Z,4.20
2023-12-19T06:19:46.058Z,3.90
2023-12-19T06:20:45.998Z,3.70
2023-12-19T06:21:46.060Z,4.20
2023-12-19T06:22:46.268Z,4.20
2023-12-19T06:23:45.963Z,4.00
2023-12-19T06:24:45.998Z,3.90
2023-12-19T06:25:45.939Z,4.00
2023-12-19T06:26:45.936Z,4.00
2023-12-19T06:27:46.031Z,4.10
2023-12-19T06:28:45.929Z,3.90
2023-12-19T06:29:45.901Z,4.00
2023-12-19T06:30:46.055Z,3.90
2023-12-19T06:31:46.048Z,3.40
2023-12-19T06:32:46.184Z,3.70
2023-12-19T06:33:45.965Z,4.00
2023-12-19T06:34:45.947Z,3.30
2023-12-19T06:35:45.855Z,3.90
2023-12-19T06:36:45.853Z,3.50
2023-12-19T06:37:45.852Z,3.20
2023-12-19T06:38:45.810Z,3.40
2023-12-19T06:39:45.803Z,3.50
2023-12-19T06:40:45.786Z,3.70
2023-12-19T06:41:45.770Z,3.30
2023-12-19T06:42:46.450Z,3.60
2023-12-19T06:43:45.745Z,3.00
2023-12-19T06:44:45.734Z,3.30
2023-12-19T06:45:45.744Z,3.00
2023-12-19T06:46:45.721Z,3.50
2023-12-19T06:47:45.724Z,3.40
2023-12-19T06:48:45.778Z,3.30
2023-12-19T06:49:45.695Z,3.40
2023-12-19T06:50:45.673Z,3.40
2023-12-19T06:51:45.680Z,3.30
2023-12-19T06:52:45.944Z,3.10
2023-12-19T06:53:45.667Z,3.30
2023-12-19T06:54:45.657Z,3.30
2023-12-19T06:55:45.643Z,2.80
2023-12-19T06:56:45.601Z,3.10
2023-12-19T06:57:45.617Z,2.90
2023-12-19T06:58:45.606Z,3.40
2023-12-19T06:59:45.574Z,3.40
2023-12-19T07:00:45.634Z,3.30
2023-12-19T07:01:45.594Z,2.90
2023-12-19T07:02:45.758Z,3.00
2023-12-19T07:03:45.595Z,3.10
2023-12-19T07:04:45.564Z,3.10
2023-12-19T07:05:45.556Z,3.00
2023-12-19T07:06:45.529Z,2.70
2023-12-19T07:07:45.482Z,3.10
2023-12-19T07:08:47.274Z,2.90
2023-12-19T07:09:45.487Z,3.00
2023-12-19T07:10:45.468Z,2.70
2023-12-19T07:11:45.451Z,2.60
2023-12-19T07:12:45.711Z,2.80
2023-12-19T07:13:45.434Z,2.80
2023-12-19T07:14:45.409Z,2.90
2023-12-19T07:15:45.440Z,2.70
2023-12-19T07:16:45.384Z,2.90
2023-12-19T07:17:45.399Z,2.70
2023-12-19T07:18:45.421Z,2.80
2023-12-19T07:19:45.645Z,3.00
2023-12-19T07:20:45.354Z,2.80
2023-12-19T07:21:45.350Z,2.90
2023-12-19T07:22:45.794Z,2.70
2023-12-19T07:23:45.304Z,2.70
2023-12-19T07:24:45.334Z,2.60
2023-12-19T07:25:45.280Z,3.00
2023-12-19T07:26:45.296Z,2.60
2023-12-19T07:27:45.354Z,2.60
2023-12-19T07:28:45.247Z,2.90
2023-12-19T07:29:45.241Z,2.40
2023-12-19T07:30:45.310Z,2.50
2023-12-19T07:31:45.275Z,2.40
2023-12-19T07:32:45.557Z,2.60
2023-12-19T07:33:45.250Z,2.20
2023-12-19T07:34:45.218Z,2.50
2023-12-19T07:35:45.175Z,3.10
2023-12-19T07:36:45.221Z,2.50
2023-12-19T07:37:45.175Z,2.60
2023-12-19T07:38:45.139Z,2.60
2023-12-19T07:39:45.171Z,2.60
2023-12-19T07:40:45.117Z,2.50
2023-12-19T07:41:45.108Z,2.90
2023-12-19T07:42:45.240Z,2.90
2023-12-19T07:43:45.096Z,2.60
2023-12-19T07:44:45.083Z,2.80
2023-12-19T07:45:45.080Z,2.80
2023-12-19T07:46:45.072Z,2.50
2023-12-19T07:47:45.072Z,2.60
2023-12-19T07:48:45.156Z,2.70
2023-12-19T07:49:45.266Z,2.70
2023-12-19T07:50:45.011Z,2.70
2023-12-19T07:51:45.013Z,2.50
2023-12-19T07:52:45.204Z,2.30
2023-12-19T07:53:44.996Z,2.60
2023-12-19T07:54:45.010Z,2.20
2023-12-19T07:55:44.976Z,2.60
2023-12-19T07:56:44.949Z,2.40
2023-12-19T07:57:47.445Z,2.20
2023-12-19T07:58:44.923Z,2.30
2023-12-19T07:59:44.944Z,2.40
2023-12-19T08:00:44.965Z,2.40
2023-12-19T08:01:44.957Z,2.70
2023-12-19T08:02:45.155Z,2.30
2023-12-19T08:03:45.010Z,2.50
2023-12-19T08:04:44.879Z,2.30
2023-12-19T08:05:44.871Z,2.30
2023-12-19T08:06:44.904Z,2.20
2023-12-19T08:07:44.826Z,2.50
2023-12-19T08:08:44.806Z,2.30
2023-12-19T08:09:44.844Z,2.40
2023-12-19T08:10:44.807Z,2.40
2023-12-19T08:11:44.783Z,2.20
2023-12-19T08:12:44.945Z,2.00
2023-12-19T08:13:44.767Z,2.30
2023-12-19T08:14:44.749Z,2.10
2023-12-19T08:15:44.794Z,2.40
2023-12-19T08:16:44.725Z,2.30
2023-12-19T08:17:44.799Z,2.40
2023-12-19T08:18:44.832Z,2.40
2023-12-19T08:19:44.755Z,2.40
2023-12-19T08:20:44.680Z,2.20
2023-12-19T08:21:44.697Z,2.30
2023-12-19T08:22:44.943Z,2.40
2023-12-19T08:23:44.646Z,2.50
2023-12-19T08:24:44.675Z,2.60
2023-12-19T08:25:44.630Z,2.30
2023-12-19T08:26:44.620Z,2.20
2023-12-19T08:27:44.629Z,2.40
2023-12-19T08:28:44.610Z,2.30
2023-12-19T08:29:44.585Z,2.10
2023-12-19T08:30:44.644Z,2.20
2023-12-19T08:31:44.590Z,2.20
2023-12-19T08:32:44.827Z,2.40
2023-12-19T08:33:44.594Z,2.50
2023-12-19T08:34:44.680Z,2.40
2023-12-19T08:35:44.513Z,2.30
2023-12-19T08:36:44.526Z,2.10
2023-12-19T08:37:44.496Z,2.30
2023-12-19T08:38:44.487Z,2.50
2023-12-19T08:39:44.615Z,2.60
2023-12-19T08:40:44.483Z,2.30
2023-12-19T08:41:44.453Z,2.20
2023-12-19T08:42:44.608Z,2.20
2023-12-19T08:43:44.425Z,2.20
2023-12-19T08:44:44.426Z,2.00
2023-12-19T08:45:44.503Z,2.10
2023-12-19T08:46:44.403Z,2.60
2023-12-19T08:47:44.445Z,2.30
2023-12-19T08:48:44.473Z,2.20
2023-12-19T08:49:44.394Z,2.10
2023-12-19T08:50:44.362Z,2.30
2023-12-19T08:51:44.409Z,2.70
2023-12-19T08:52:44.586Z,2.20
2023-12-19T08:53:44.318Z,2.00
2023-12-19T08:54:44.345Z,2.20
2023-12-19T08:55:44.306Z,2.10
2023-12-19T08:56:44.385Z,2.10
2023-12-19T08:57:44.351Z,2.00
2023-12-19T08:58:44.311Z,1.80
2023-12-19T08:59:44.255Z,2.00
2023-12-19T09:00:44.319Z,1.90
2023-12-19T09:01:44.321Z,2.20
2023-12-19T09:02:44.625Z,1.70
2023-12-19T09:03:44.297Z,2.10
2023-12-19T09:04:44.313Z,2.00
2023-12-19T09:05:44.196Z,1.70
2023-12-19T09:06:44.212Z,1.60
2023-12-19T09:07:44.159Z,2.10
2023-12-19T09:08:44.184Z,1.80
2023-12-19T09:09:44.204Z,1.60
2023-12-19T09:10:44.140Z,1.80
2023-12-19T09:11:44.127Z,1.90
2023-12-19T09:12:44.548Z,1.70
2023-12-19T09:13:44.121Z,1.70
2023-12-19T09:14:44.113Z,1.60
2023-12-19T09:15:44.105Z,1.60
2023-12-19T09:16:44.086Z,1.50
2023-12-19T09:17:44.094Z,1.50
2023-12-19T09:18:44.199Z,1.50
2023-12-19T09:19:44.230Z,1.70
2023-12-19T09:20:44.027Z,1.50
2023-12-19T09:21:44.016Z,1.70
2023-12-19T09:22:44.262Z,1.70
2023-12-19T09:23:43.992Z,1.30
2023-12-19T09:24:44.016Z,1.60
2023-12-19T09:25:44.002Z,1.50
2023-12-19T09:26:43.960Z,1.60
2023-12-19T09:27:44.042Z,1.30
2023-12-19T09:28:43.936Z,1.40
2023-12-19T09:29:43.926Z,1.30
2023-12-19T09:30:44.004Z,1.20
2023-12-19T09:31:44.031Z,1.40
2023-12-19T09:32:44.245Z,1.40
2023-12-19T09:33:43.968Z,1.30
2023-12-19T09:34:43.983Z,1.30
2023-12-19T09:35:43.859Z,1.30
2023-12-19T09:36:53.000Z,1.40
2023-12-19T09:37:43.843Z,1.20
2023-12-19T09:38:43.826Z,1.30
2023-12-19T09:39:43.857Z,1.50
2023-12-19T09:40:46.712Z,1.30
2023-12-19T09:41:43.809Z,1.10
2023-12-19T09:42:44.108Z,1.40
2023-12-19T09:43:43.773Z,1.00
2023-12-19T09:44:43.766Z,1.20
2023-12-19T09:45:46.394Z,1.40
2023-12-19T09:46:43.746Z,1.20
2023-12-19T09:47:43.757Z,1.20
2023-12-19T09:48:43.839Z,1.50
2023-12-19T09:49:43.802Z,1.10
2023-12-19T09:50:43.701Z,1.10
2023-12-19T09:51:43.783Z,1.20
2023-12-19T09:52:44.009Z,1.40
2023-12-19T09:53:43.675Z,1.30
2023-12-19T09:54:43.667Z,1.20
2023-12-19T09:55:43.667Z,1.10
2023-12-19T09:56:43.627Z,1.20
2023-12-19T09:57:43.630Z,1.20
2023-12-19T09:58:43.617Z,1.30
2023-12-19T09:59:51.400Z,1.20
2023-12-19T10:00:43.631Z,1.20
2023-12-19T10:01:43.635Z,1.30
2023-12-19T10:02:43.678Z,1.20
2023-12-19T10:03:43.633Z,1.30
2023-12-19T10:04:43.674Z,1.10
2023-12-19T10:05:43.603Z,1.40
2023-12-19T10:06:51.862Z,1.30
2023-12-19T10:07:43.550Z,1.20
2023-12-19T10:08:43.537Z,1.40
2023-12-19T10:09:43.542Z,1.20
2023-12-19T10:10:43.474Z,1.40
2023-12-19T10:11:43.459Z,1.30
2023-12-19T10:12:53.254Z,1.30
2023-12-19T10:13:43.456Z,1.20
2023-12-19T10:14:43.453Z,1.30
2023-12-19T10:15:43.447Z,1.30
2023-12-19T10:16:43.463Z,1.20
2023-12-19T10:17:43.419Z,1.30
2023-12-19T10:18:46.393Z,1.40
2023-12-19T10:19:43.428Z,1.00
2023-12-19T10:20:43.383Z,0.90
2023-12-19T10:21:43.397Z,1.20
2023-12-19T10:22:43.651Z,1.00
2023-12-19T10:23:43.328Z,1.20
2023-12-19T10:24:43.357Z,1.30
2023-12-19T10:25:46.442Z,1.40
2023-12-19T10:26:43.314Z,1.30
2023-12-19T10:27:43.310Z,1.40
2023-12-19T10:28:43.281Z,1.30
2023-12-19T10:29:43.266Z,1.20
2023-12-19T10:30:43.283Z,1.30
2023-12-19T10:31:43.275Z,1.30
2023-12-19T10:32:43.508Z,1.30
2023-12-19T10:33:43.807Z,1.20
2023-12-19T10:34:43.377Z,1.20
2023-12-19T10:35:43.211Z,1.30
2023-12-19T10:36:43.225Z,1.20
2023-12-19T10:37:45.356Z,1.50
2023-12-19T10:38:43.189Z,1.50
2023-12-19T10:39:43.197Z,1.50
2023-12-19T10:40:43.187Z,1.70
2023-12-19T10:41:43.139Z,1.70
2023-12-19T10:42:43.150Z,1.60
2023-12-19T10:43:43.109Z,1.30
2023-12-19T10:44:43.120Z,1.60
2023-12-19T10:45:43.095Z,1.70
2023-12-19T10:46:43.076Z,1.80
2023-12-19T10:47:43.303Z,1.70
2023-12-19T10:48:43.235Z,1.50
2023-12-19T10:49:43.134Z,1.70
2023-12-19T10:50:43.231Z,1.60
2023-12-19T10:51:43.374Z,1.60
2023-12-19T10:52:43.014Z,1.50
2023-12-19T10:53:42.994Z,2.10
2023-12-19T10:54:43.104Z,1.80
2023-12-19T10:55:43.010Z,1.90
2023-12-19T10:56:42.981Z,1.90
2023-12-19T10:57:43.325Z,2.20
2023-12-19T10:58:42.948Z,2.00
2023-12-19T10:59:42.936Z,1.90
2023-12-19T11:00:43.176Z,2.10
2023-12-19T11:01:43.041Z,2.30
2023-12-19T11:02:42.927Z,2.10
2023-12-19T11:03:42.987Z,2.60
2023-12-19T11:04:43.207Z,2.40
2023-12-19T11:05:43.102Z,2.00
2023-12-19T11:06:42.865Z,2.10
2023-12-19T11:07:43.161Z,2.50
2023-12-19T11:08:42.855Z,2.20
2023-12-19T11:09:42.844Z,2.40
2023-12-19T11:10:42.816Z,2.20
2023-12-19T11:11:42.808Z,2.40
2023-12-19T11:12:42.847Z,2.50
2023-12-19T11:13:42.787Z,2.40
2023-12-19T11:14:45.394Z,2.50
2023-12-19T11:15:42.797Z,2.50
2023-12-19T11:16:42.762Z,2.40
2023-12-19T11:17:43.154Z,2.70
2023-12-19T11:18:42.942Z,2.70
2023-12-19T11:19:42.788Z,2.70
2023-12-19T11:20:42.979Z,2.90
2023-12-19T11:21:42.712Z,2.90
2023-12-19T11:22:42.689Z,2.80
2023-12-19T11:23:42.674Z,3.00
2023-12-19T11:24:42.701Z,2.80
2023-12-19T11:25:42.745Z,3.10
2023-12-19T11:26:42.648Z,2.50
2023-12-19T11:27:42.866Z,2.90
2023-12-19T11:28:42.617Z,3.00
2023-12-19T11:29:42.654Z,2.90
2023-12-19T11:30:42.786Z,3.10
2023-12-19T11:31:42.635Z,3.40
2023-12-19T11:32:42.762Z,3.10
2023-12-19T11:33:42.740Z,3.00
2023-12-19T11:34:42.561Z,3.60
2023-12-19T11:35:42.549Z,3.40
2023-12-19T11:36:42.568Z,3.00
2023-12-19T11:37:42.778Z,3.60
2023-12-19T11:38:42.507Z,3.60
2023-12-19T11:39:42.528Z,4.10
2023-12-19T11:40:42.510Z,3.60
2023-12-19T11:41:42.474Z,3.90
2023-12-19T11:42:42.588Z,3.60
2023-12-19T11:43:42.455Z,3.70
2023-12-19T11:44:42.432Z,3.80
2023-12-19T11:45:42.491Z,4.10
2023-12-19T11:46:42.462Z,4.00
2023-12-19T11:47:42.767Z,3.90
2023-12-19T11:48:42.761Z,3.80
2023-12-19T11:49:42.490Z,4.30
2023-12-19T11:50:42.372Z,4.10
2023-12-19T11:51:42.412Z,4.10
2023-12-19T11:52:42.371Z,4.00
2023-12-19T11:53:42.341Z,4.50
2023-12-19T11:54:42.400Z,4.60
2023-12-19T11:55:42.321Z,4.80
2023-12-19T11:56:42.322Z,4.60
2023-12-19T11:57:50.039Z,4.40
2023-12-19T11:58:42.338Z,4.70
2023-12-19T11:59:42.284Z,4.40
2023-12-19T12:00:44.813Z,4.90
2023-12-19T12:01:42.499Z,5.20
2023-12-19T12:02:42.270Z,5.20
2023-12-19T12:03:42.271Z,5.10
2023-12-19T12:04:42.255Z,4.90
2023-12-19T12:05:42.260Z,5.30
2023-12-19T12:06:42.230Z,4.60
2023-12-19T12:07:42.612Z,4.90
2023-12-19T12:08:42.194Z,5.30
2023-12-19T12:09:42.214Z,4.70
2023-12-19T12:10:42.168Z,4.90
2023-12-19T12:11:42.137Z,5.10
2023-12-19T12:12:42.203Z,5.20
2023-12-19T12:13:42.167Z,4.80
2023-12-19T12:14:42.127Z,4.80
2023-12-19T12:15:42.199Z,4.70
2023-12-19T12:16:42.225Z,4.50
2023-12-19T12:17:42.372Z,4.90
2023-12-19T12:18:42.330Z,4.60
2023-12-19T12:19:42.173Z,4.90
2023-12-19T12:20:42.068Z,4.40
2023-12-19T12:21:42.213Z,4.90
2023-12-19T12:22:42.307Z,4.40
2023-12-19T12:23:42.212Z,5.10
2023-12-19T12:24:44.634Z,4.40
2023-12-19T12:25:42.164Z,4.70
2023-12-19T12:26:41.979Z,4.60
2023-12-19T12:27:42.117Z,4.00
2023-12-19T12:28:42.043Z,4.70
2023-12-19T12:29:42.179Z,4.40
2023-12-19T12:30:42.080Z,4.50
2023-12-19T12:31:42.015Z,4.40
2023-12-19T12:32:42.136Z,4.30
2023-12-19T12:33:42.025Z,4.50
2023-12-19T12:34:42.118Z,4.60
2023-12-19T12:35:41.935Z,4.40
2023-12-19T12:36:41.911Z,4.70
2023-12-19T12:37:42.356Z,4.40
2023-12-19T12:38:41.855Z,4.50
2023-12-19T12:39:41.864Z,4.60
2023-12-19T12:40:41.828Z,4.40
2023-12-19T12:41:41.825Z,5.00
2023-12-19T12:42:41.846Z,4.80
2023-12-19T12:43:41.922Z,4.80
2023-12-19T12:44:41.787Z,4.40
2023-12-19T12:45:41.851Z,4.70
2023-12-19T12:46:41.770Z,4.70
2023-12-19T12:47:41.912Z,4.80
2023-12-19T12:48:42.057Z,4.80
2023-12-19T12:49:41.805Z,4.60
2023-12-19T12:50:41.837Z,5.00
2023-12-19T12:51:41.732Z,5.40
2023-12-19T12:52:41.727Z,5.10
2023-12-19T12:53:41.694Z,4.90
2023-12-19T12:54:41.721Z,5.20
2023-12-19T12:55:41.666Z,5.70
2023-12-19T12:56:41.672Z,5.50
2023-12-19T12:57:42.153Z,5.10
2023-12-19T12:58:41.635Z,5.60
2023-12-19T12:59:41.623Z,5.50
2023-12-19T13:00:42.526Z,5.90
2023-12-19T13:01:41.689Z,5.50
2023-12-19T13:02:41.623Z,5.60
2023-12-19T13:03:41.639Z,5.30
2023-12-19T13:04:41.574Z,5.50
2023-12-19T13:05:41.584Z,5.90
2023-12-19T13:06:43.542Z,6.20
2023-12-19T13:07:41.656Z,5.50
2023-12-19T13:08:41.575Z,6.30
2023-12-19T13:09:41.533Z,6.60